createdAt,value
2023-03-11T00:00:09.153Z,100.00
2023-03-11T00:02:35.640Z,100.00
2023-03-11T00:05:02.619Z,100.00
2023-03-11T00:07:29.192Z,100.00
2023-03-11T00:09:55.632Z,100.00
2023-03-11T00:12:22.087Z,100.00
2023-03-11T00:14:48.540Z,100.00
2023-03-11T00:17:14.991Z,100.00
2023-03-11T00:19:41.540Z,100.00
2023-03-11T00:22:08.106Z,100.00
2023-03-11T00:24:34.932Z,100.00
2023-03-11T00:27:01.370Z,100.00
2023-03-11T00:29:27.944Z,100.00
2023-03-11T00:31:54.727Z,100.00
2023-03-11T00:34:21.201Z,100.00
2023-03-11T00:36:47.647Z,100.00
2023-03-11T00:39:14.989Z,100.00
2023-03-11T00:41:41.430Z,100.00
2023-03-11T00:44:07.927Z,100.00
2023-03-11T00:46:34.374Z,100.00
2023-03-11T00:49:00.974Z,100.00
2023-03-11T00:51:28.114Z,100.00
2023-03-11T00:53:54.932Z,100.00
2023-03-11T00:56:21.440Z,100.00
2023-03-11T00:58:47.851Z,100.00
2023-03-11T01:01:17.682Z,100.00
2023-03-11T01:03:44.518Z,100.00
2023-03-11T01:06:11.442Z,100.00
2023-03-11T01:08:38.499Z,100.00
2023-03-11T01:11:07.011Z,100.00
2023-03-11T01:13:34.026Z,100.00
2023-03-11T01:16:00.994Z,100.00
2023-03-11T01:18:27.705Z,100.00
2023-03-11T01:20:54.258Z,100.00
2023-03-11T01:23:21.151Z,100.00
2023-03-11T01:25:48.186Z,100.00
2023-03-11T01:28:14.657Z,100.00
2023-03-11T01:30:42.341Z,100.00
2023-03-11T01:33:15.221Z,100.00
2023-03-11T01:35:42.292Z,100.00
2023-03-11T01:38:09.122Z,100.00
2023-03-11T01:40:38.341Z,100.00
2023-03-11T01:43:05.992Z,100.00
2023-03-11T01:45:41.263Z,100.00
2023-03-11T01:48:09.252Z,100.00
2023-03-11T01:50:40.224Z,100.00
2023-03-11T01:53:07.808Z,100.00
2023-03-11T01:55:34.652Z,100.00
2023-03-11T01:58:05.771Z,100.00
2023-03-11T02:00:32.319Z,100.00
2023-03-11T02:03:02.178Z,100.00
2023-03-11T02:05:28.834Z,100.00
2023-03-11T02:07:56.093Z,100.00
2023-03-11T02:10:22.611Z,100.00
2023-03-11T02:12:50.757Z,100.00
2023-03-11T02:15:17.549Z,100.00
2023-03-11T02:17:44.634Z,100.00
2023-03-11T02:20:32.642Z,100.00
2023-03-11T02:23:01.518Z,100.00
2023-03-11T02:26:00.170Z,100.00
2023-03-11T02:28:28.218Z,100.00
2023-03-11T02:30:56.925Z,100.00
2023-03-11T02:33:28.181Z,100.00
2023-03-11T02:35:54.960Z,100.00
2023-03-11T02:38:21.423Z,100.00
2023-03-11T02:40:48.633Z,100.00
2023-03-11T02:43:18.047Z,100.00
2023-03-11T02:45:46.844Z,100.00
2023-03-11T02:48:14.457Z,100.00
2023-03-11T02:50:41.466Z,100.00
2023-03-11T02:53:08.233Z,100.00
2023-03-11T02:55:34.688Z,100.00
2023-03-11T02:58:01.546Z,100.00
2023-03-11T03:00:28.017Z,100.00
2023-03-11T03:02:54.784Z,100.00
2023-03-11T03:05:22.536Z,100.00
2023-03-11T03:07:49.982Z,100.00
2023-03-11T03:10:17.869Z,100.00
2023-03-11T03:12:44.293Z,100.00
2023-03-11T03:15:11.991Z,100.00
2023-03-11T03:17:38.729Z,100.00
2023-03-11T03:20:11.196Z,100.00
2023-03-11T03:22:39.371Z,100.00
2023-03-11T03:25:06.463Z,100.00
2023-03-11T03:27:34.300Z,100.00
2023-03-11T03:30:00.739Z,100.00
2023-03-11T03:32:27.263Z,100.00
2023-03-11T03:34:58.847Z,100.00
2023-03-11T03:37:27.302Z,100.00
2023-03-11T03:39:54.753Z,100.00
2023-03-11T03:42:21.768Z,100.00
2023-03-11T03:44:48.270Z,100.00
2023-03-11T03:47:14.826Z,100.00
2023-03-11T03:49:41.528Z,100.00
2023-03-11T03:52:08.642Z,100.00
2023-03-11T03:54:35.123Z,100.00
2023-03-11T03:57:02.108Z,100.00
2023-03-11T03:59:28.823Z,100.00
2023-03-11T04:01:55.624Z,100.00
2023-03-11T04:04:22.111Z,100.00
2023-03-11T04:06:48.650Z,100.00
2023-03-11T04:09:15.109Z,100.00
2023-03-11T04:11:41.622Z,100.00
2023-03-11T04:14:08.115Z,100.00
2023-03-11T04:16:34.659Z,100.00
2023-03-11T04:19:01.150Z,100.00
2023-03-11T04:21:27.606Z,100.00
2023-03-11T04:23:54.141Z,100.00
2023-03-11T04:26:20.596Z,100.00
2023-03-11T04:28:47.102Z,100.00
2023-03-11T04:31:13.762Z,100.00
2023-03-11T04:33:40.326Z,100.00
2023-03-11T04:36:08.712Z,100.00
2023-03-11T04:38:35.555Z,100.00
2023-03-11T04:41:03.203Z,100.00
2023-03-11T04:43:29.678Z,100.00
2023-03-11T04:45:56.181Z,100.00
2023-03-11T04:48:22.785Z,100.00
2023-03-11T04:50:49.220Z,100.00
2023-03-11T04:53:15.875Z,100.00
2023-03-11T04:55:42.379Z,100.00
2023-03-11T04:58:08.966Z,100.00
2023-03-11T05:00:35.576Z,100.00
2023-03-11T05:03:02.162Z,100.00
2023-03-11T05:05:28.703Z,100.00
2023-03-11T05:07:55.146Z,100.00
2023-03-11T05:10:24.319Z,100.00
2023-03-11T05:12:50.988Z,100.00
2023-03-11T05:15:18.195Z,100.00
2023-03-11T05:17:45.117Z,100.00
2023-03-11T05:20:12.732Z,100.00
2023-03-11T05:22:39.332Z,100.00
2023-03-11T05:25:06.683Z,100.00
2023-03-11T05:27:33.246Z,100.00
2023-03-11T05:29:59.721Z,100.00
2023-03-11T05:32:26.342Z,100.00
2023-03-11T05:34:52.922Z,100.00
2023-03-11T05:37:19.401Z,100.00
2023-03-11T05:39:45.856Z,100.00
2023-03-11T05:42:12.474Z,100.00
2023-03-11T05:44:39.002Z,100.00
2023-03-11T05:47:05.466Z,100.00
2023-03-11T05:49:32.050Z,100.00
2023-03-11T05:51:58.936Z,100.00
2023-03-11T05:54:25.601Z,100.00
2023-03-11T05:56:52.334Z,100.00
2023-03-11T05:59:19.835Z,100.00
2023-03-11T06:01:46.351Z,100.00
2023-03-11T06:04:13.518Z,100.00
2023-03-11T06:06:43.913Z,100.00
2023-03-11T06:09:13.318Z,100.00
2023-03-11T06:11:39.738Z,100.00
2023-03-11T06:14:06.284Z,100.00
2023-03-11T06:16:32.986Z,100.00
2023-03-11T06:19:02.484Z,100.00
2023-03-11T06:21:28.915Z,100.00
2023-03-11T06:23:55.402Z,100.00
2023-03-11T06:26:23.582Z,100.00
2023-03-11T06:28:51.977Z,100.00
2023-03-11T06:31:27.050Z,100.00
2023-03-11T06:33:55.866Z,100.00
2023-03-11T06:36:23.757Z,100.00
2023-03-11T06:38:52.364Z,100.00
2023-03-11T06:41:18.822Z,100.00
2023-03-11T06:43:45.381Z,100.00
2023-03-11T06:46:15.205Z,100.00
2023-03-11T06:48:41.867Z,100.00
2023-03-11T06:51:09.721Z,100.00
2023-03-11T06:53:36.203Z,100.00
2023-03-11T06:56:06.882Z,100.00
2023-03-11T06:58:35.367Z,100.00
2023-03-11T07:01:06.980Z,100.00
2023-03-11T07:03:33.454Z,100.00
2023-03-11T07:06:00.003Z,100.00
2023-03-11T07:08:27.215Z,100.00
2023-03-11T07:11:07.112Z,100.00
2023-03-11T07:13:33.960Z,100.00
2023-03-11T07:16:10.476Z,100.00
2023-03-11T07:18:38.396Z,100.00
2023-03-11T07:21:06.979Z,100.00
2023-03-11T07:23:34.140Z,100.00
2023-03-11T07:26:01.156Z,100.00
2023-03-11T07:28:29.049Z,100.00
2023-03-11T07:30:55.663Z,100.00
2023-03-11T07:33:28.174Z,100.00
2023-03-11T07:35:54.667Z,100.00
2023-03-11T07:38:21.483Z,100.00
2023-03-11T07:40:57.152Z,100.00
2023-03-11T07:43:23.649Z,100.00
2023-03-11T07:45:51.424Z,100.00
2023-03-11T07:48:18.563Z,100.00
2023-03-11T07:50:45.052Z,100.00
2023-03-11T07:53:11.493Z,100.00
2023-03-11T07:55:37.993Z,100.00
2023-03-11T07:58:04.456Z,100.00
2023-03-11T08:00:31.026Z,100.00
2023-03-11T08:02:57.786Z,100.00
2023-03-11T08:05:24.306Z,100.00
2023-03-11T08:07:50.739Z,100.00
2023-03-11T08:10:17.425Z,100.00
2023-03-11T08:12:43.894Z,100.00
2023-03-11T08:15:10.981Z,100.00
2023-03-11T08:17:37.464Z,100.00
2023-03-11T08:20:05.050Z,100.00
2023-03-11T08:22:31.546Z,100.00
2023-03-11T08:24:57.972Z,100.00
2023-03-11T08:27:24.412Z,100.00
2023-03-11T08:29:50.848Z,100.00
2023-03-11T08:32:17.400Z,100.00
2023-03-11T08:34:44.016Z,100.00
2023-03-11T08:37:10.578Z,100.00
2023-03-11T08:39:37.019Z,100.00
2023-03-11T08:42:03.690Z,100.00
2023-03-11T08:44:30.331Z,100.00
2023-03-11T08:46:56.927Z,100.00
2023-03-11T08:49:23.471Z,100.00
2023-03-11T08:51:50.076Z,100.00
2023-03-11T08:54:16.593Z,100.00
2023-03-11T08:56:43.161Z,100.00
2023-03-11T08:59:09.612Z,100.00
2023-03-11T09:01:36.121Z,100.00
2023-03-11T09:04:02.656Z,100.00
2023-03-11T09:06:30.528Z,100.00
2023-03-11T09:08:57.260Z,100.00
2023-03-11T09:11:23.999Z,100.00
2023-03-11T09:13:50.441Z,100.00
2023-03-11T09:16:22.670Z,100.00
2023-03-11T09:18:49.508Z,100.00
2023-03-11T09:21:16.026Z,100.00
2023-03-11T09:23:44.383Z,100.00
2023-03-11T09:26:11.868Z,100.00
2023-03-11T09:28:38.487Z,96.46
2023-03-11T09:31:05.370Z,75.88
2023-03-11T09:33:31.937Z,78.30
2023-03-11T09:36:00.279Z,78.64
2023-03-11T09:38:26.783Z,79.40
2023-03-11T09:41:05.761Z,80.88
2023-03-11T09:44:01.852Z,79.74
2023-03-11T09:46:40.478Z,78.39
2023-03-11T09:49:39.687Z,80.54
2023-03-11T09:52:16.194Z,75.34
2023-03-11T09:54:47.275Z,66.80
2023-03-11T09:57:21.791Z,66.27
2023-03-11T09:59:48.833Z,63.43
2023-03-11T10:02:19.296Z,63.17
2023-03-11T10:04:54.883Z,64.85
2023-03-11T10:07:27.738Z,63.95
2023-03-11T10:10:00.260Z,65.98
2023-03-11T10:12:36.011Z,64.21
2023-03-11T10:15:02.403Z,67.57
2023-03-11T10:18:01.838Z,67.87
2023-03-11T10:20:40.113Z,67.80
2023-03-11T10:23:51.274Z,66.93
2023-03-11T10:26:31.247Z,65.81
2023-03-11T10:29:16.536Z,71.88
2023-03-11T10:31:50.524Z,67.35
2023-03-11T10:34:26.821Z,65.99
2023-03-11T10:37:06.743Z,68.93
2023-03-11T10:39:34.387Z,69.41
2023-03-11T10:42:03.295Z,71.48
2023-03-11T10:44:35.355Z,67.35
2023-03-11T10:47:02.180Z,67.69
2023-03-11T10:49:29.473Z,66.34
2023-03-11T10:51:57.235Z,65.57
2023-03-11T10:54:38.399Z,65.20
2023-03-11T10:57:27.303Z,69.74
2023-03-11T10:59:56.334Z,71.21
2023-03-11T11:02:43.219Z,70.88
2023-03-11T11:05:18.880Z,67.22
2023-03-11T11:07:47.995Z,66.22
2023-03-11T11:10:22.029Z,66.41
2023-03-11T11:13:03.891Z,70.04
2023-03-11T11:15:36.042Z,72.29
2023-03-11T11:18:06.112Z,68.50
2023-03-11T11:20:34.025Z,69.11
2023-03-11T11:23:03.380Z,68.23
2023-03-11T11:25:29.935Z,62.44
2023-03-11T11:27:59.758Z,63.87
2023-03-11T11:30:28.005Z,61.83
2023-03-11T11:32:55.743Z,61.78
2023-03-11T11:35:24.266Z,66.14
2023-03-11T11:38:00.103Z,64.00
2023-03-11T11:40:30.808Z,65.97
2023-03-11T11:43:01.209Z,65.35
2023-03-11T11:45:36.305Z,67.41
2023-03-11T11:48:24.139Z,65.92
2023-03-11T11:50:57.605Z,64.54
2023-03-11T11:53:46.690Z,62.36
2023-03-11T11:56:13.499Z,61.87
2023-03-11T11:58:41.303Z,60.46
2023-03-11T12:01:23.808Z,61.40
2023-03-11T12:04:13.263Z,63.27
2023-03-11T12:07:14.773Z,56.81
2023-03-11T12:09:47.336Z,60.61
2023-03-11T12:12:21.339Z,65.58
2023-03-11T12:15:00.988Z,67.81
2023-03-11T12:17:30.434Z,64.93
2023-03-11T12:19:56.702Z,63.46
2023-03-11T12:22:45.049Z,61.81
2023-03-11T12:25:39.270Z,60.39
2023-03-11T12:28:27.656Z,62.94
2023-03-11T12:30:58.106Z,65.29
2023-03-11T12:33:32.087Z,65.41
2023-03-11T12:36:02.351Z,65.53
2023-03-11T12:38:34.432Z,62.71
2023-03-11T12:41:27.640Z,63.79
2023-03-11T12:43:58.014Z,64.03
2023-03-11T12:46:59.627Z,63.44
2023-03-11T12:49:33.341Z,63.77
2023-03-11T12:52:18.618Z,62.42
2023-03-11T12:54:47.664Z,63.24
2023-03-11T12:57:17.249Z,64.67
2023-03-11T13:00:02.168Z,61.98
2023-03-11T13:02:50.457Z,62.48
2023-03-11T13:05:34.931Z,62.82
2023-03-11T13:08:22.920Z,59.01
2023-03-11T13:10:51.713Z,62.20
2023-03-11T13:13:39.576Z,62.68
2023-03-11T13:16:15.028Z,63.43
2023-03-11T13:18:43.685Z,62.23
2023-03-11T13:21:28.361Z,64.12
2023-03-11T13:24:19.926Z,65.79
2023-03-11T13:26:55.116Z,61.76
2023-03-11T13:29:57.140Z,60.95
2023-03-11T13:32:52.523Z,63.90
2023-03-11T13:35:44.994Z,61.54
2023-03-11T13:38:39.459Z,61.74
2023-03-11T13:41:16.271Z,60.59
2023-03-11T13:43:48.771Z,60.10
2023-03-11T13:46:27.655Z,59.54
2023-03-11T13:49:03.750Z,61.89
2023-03-11T13:51:40.159Z,62.03
2023-03-11T13:54:22.873Z,63.77
2023-03-11T13:56:55.694Z,65.52
2023-03-11T13:59:23.270Z,67.28
2023-03-11T14:01:51.437Z,64.22
2023-03-11T14:04:25.453Z,63.69
2023-03-11T14:06:52.467Z,61.21
2023-03-11T14:09:20.967Z,62.64
2023-03-11T14:11:48.879Z,65.94
2023-03-11T14:14:43.297Z,66.25
2023-03-11T14:17:16.367Z,67.36
2023-03-11T14:19:43.657Z,67.85
2023-03-11T14:22:11.055Z,66.07
2023-03-11T14:24:39.665Z,58.15
2023-03-11T14:27:09.343Z,60.42
2023-03-11T14:29:42.484Z,63.08
2023-03-11T14:32:27.773Z,60.01
2023-03-11T14:34:54.994Z,62.97
2023-03-11T14:37:32.684Z,62.36
2023-03-11T14:39:59.439Z,61.67
2023-03-11T14:42:33.878Z,64.68
2023-03-11T14:45:18.633Z,62.62
2023-03-11T14:48:08.081Z,61.30
2023-03-11T14:50:35.139Z,61.69
2023-03-11T14:53:40.273Z,63.40
2023-03-11T14:56:12.846Z,60.49
2023-03-11T14:59:08.385Z,61.88
2023-03-11T15:01:42.122Z,62.20
2023-03-11T15:04:13.452Z,63.29
2023-03-11T15:06:43.233Z,59.93
2023-03-11T15:09:19.349Z,59.27
2023-03-11T15:12:01.306Z,61.46
2023-03-11T15:14:33.515Z,62.04
2023-03-11T15:17:37.111Z,62.97
2023-03-11T15:20:24.300Z,62.32
2023-03-11T15:23:00.652Z,61.47
2023-03-11T15:25:33.981Z,60.63
2023-03-11T15:28:24.274Z,61.37
2023-03-11T15:30:52.363Z,61.47
2023-03-11T15:33:30.116Z,63.86
2023-03-11T15:35:56.561Z,66.00
2023-03-11T15:38:26.183Z,62.43
2023-03-11T15:40:56.512Z,66.75
2023-03-11T15:43:30.686Z,65.41
2023-03-11T15:46:00.192Z,64.66
2023-03-11T15:48:28.851Z,63.84
2023-03-11T15:50:57.687Z,66.40
2023-03-11T15:53:26.554Z,62.58
2023-03-11T15:56:05.975Z,64.61
2023-03-11T15:58:33.268Z,67.11
2023-03-11T16:01:00.040Z,67.30
2023-03-11T16:03:26.541Z,67.41
2023-03-11T16:05:53.035Z,68.75
2023-03-11T16:08:19.470Z,67.04
2023-03-11T16:10:45.966Z,67.89
2023-03-11T16:13:13.963Z,65.04
2023-03-11T16:15:42.278Z,69.28
2023-03-11T16:18:09.775Z,68.03
2023-03-11T16:21:04.641Z,67.39
2023-03-11T16:23:50.205Z,66.54
2023-03-11T16:26:17.485Z,69.76
2023-03-11T16:28:44.072Z,67.44
2023-03-11T16:31:10.646Z,63.34
2023-03-11T16:33:37.167Z,59.51
2023-03-11T16:36:04.235Z,64.72
2023-03-11T16:38:42.108Z,64.44
2023-03-11T16:41:08.525Z,62.52
2023-03-11T16:43:34.935Z,64.69
2023-03-11T16:46:01.467Z,62.73
2023-03-11T16:48:27.897Z,62.47
2023-03-11T16:50:54.361Z,61.72
2023-03-11T16:53:20.848Z,66.90
2023-03-11T16:55:47.999Z,67.94
2023-03-11T16:58:15.173Z,69.40
2023-03-11T17:00:42.297Z,66.10
2023-03-11T17:03:12.298Z,63.56
2023-03-11T17:05:38.892Z,61.62
2023-03-11T17:08:06.496Z,60.34
2023-03-11T17:10:42.671Z,60.94
2023-03-11T17:13:11.273Z,61.82
2023-03-11T17:15:38.298Z,62.16
2023-03-11T17:18:05.978Z,62.28
2023-03-11T17:20:33.696Z,63.80
2023-03-11T17:23:00.494Z,63.54
2023-03-11T17:25:27.106Z,63.17
2023-03-11T17:27:53.607Z,63.65
2023-03-11T17:30:35.611Z,65.29
2023-03-11T17:33:03.263Z,64.85
2023-03-11T17:35:29.781Z,68.23
2023-03-11T17:37:56.388Z,68.41
2023-03-11T17:40:22.845Z,67.50
2023-03-11T17:42:49.307Z,68.64
2023-03-11T17:45:15.758Z,66.80
2023-03-11T17:47:42.316Z,66.68
2023-03-11T17:50:09.520Z,70.31
2023-03-11T17:52:35.996Z,68.75
2023-03-11T17:55:02.471Z,70.79
2023-03-11T17:57:28.880Z,69.02
2023-03-11T17:59:55.320Z,69.42
2023-03-11T18:02:21.897Z,69.71
2023-03-11T18:04:53.686Z,70.97
2023-03-11T18:07:22.913Z,71.15
2023-03-11T18:09:53.391Z,73.50
2023-03-11T18:12:20.716Z,74.15
2023-03-11T18:14:47.374Z,75.00
2023-03-11T18:17:13.824Z,75.20
2023-03-11T18:19:40.326Z,76.06
2023-03-11T18:22:06.864Z,76.59
2023-03-11T18:24:33.272Z,74.91
2023-03-11T18:26:59.767Z,73.32
2023-03-11T18:29:26.195Z,74.19
2023-03-11T18:31:52.666Z,72.16
2023-03-11T18:34:19.216Z,72.19
2023-03-11T18:36:45.729Z,72.50
2023-03-11T18:39:13.651Z,73.20
2023-03-11T18:41:41.075Z,74.19
2023-03-11T18:44:08.394Z,74.60
2023-03-11T18:46:34.999Z,75.84
2023-03-11T18:49:03.338Z,73.59
2023-03-11T18:51:31.679Z,74.53
2023-03-11T18:53:58.792Z,75.79
2023-03-11T18:56:25.774Z,77.72
2023-03-11T18:58:52.480Z,76.77
2023-03-11T19:01:20.809Z,77.98
2023-03-11T19:03:58.099Z,77.00
2023-03-11T19:06:27.010Z,76.09
2023-03-11T19:08:54.256Z,75.21
2023-03-11T19:11:23.201Z,75.45
2023-03-11T19:13:50.421Z,77.12
2023-03-11T19:16:20.027Z,81.73
2023-03-11T19:18:46.899Z,86.15
2023-03-11T19:21:15.032Z,88.31
2023-03-11T19:23:41.918Z,89.55
2023-03-11T19:26:08.445Z,90.75
2023-03-11T19:28:35.408Z,88.67
2023-03-11T19:31:03.669Z,89.57
2023-03-11T19:33:30.491Z,86.32
2023-03-11T19:36:02.160Z,86.85
2023-03-11T19:38:29.474Z,89.32
2023-03-11T19:41:07.987Z,87.46
2023-03-11T19:43:38.137Z,87.55
2023-03-11T19:46:06.015Z,88.46
2023-03-11T19:48:33.091Z,86.92
2023-03-11T19:51:00.109Z,87.83
2023-03-11T19:53:27.256Z,89.12
2023-03-11T19:55:56.130Z,88.93
2023-03-11T19:58:23.816Z,87.85
2023-03-11T20:00:51.050Z,88.85
2023-03-11T20:03:19.070Z,91.57
2023-03-11T20:05:46.916Z,88.98
2023-03-11T20:08:16.407Z,89.52
2023-03-11T20:10:45.578Z,91.13
2023-03-11T20:13:13.170Z,91.83
2023-03-11T20:15:40.178Z,88.43
2023-03-11T20:18:07.280Z,87.32
2023-03-11T20:20:38.097Z,89.36
2023-03-11T20:23:04.895Z,88.00
2023-03-11T20:25:32.431Z,88.78
2023-03-11T20:27:59.903Z,92.83
2023-03-11T20:30:27.401Z,92.70
2023-03-11T20:32:54.584Z,91.55
2023-03-11T20:35:21.999Z,88.11
2023-03-11T20:37:48.776Z,88.13
2023-03-11T20:40:17.008Z,89.11
2023-03-11T20:42:46.625Z,86.52
2023-03-11T20:45:21.876Z,88.44
2023-03-11T20:47:50.353Z,87.09
2023-03-11T20:50:17.278Z,86.96
2023-03-11T20:52:45.180Z,85.82
2023-03-11T20:55:12.323Z,88.03
2023-03-11T20:57:40.039Z,85.80
2023-03-11T21:00:12.506Z,86.73
2023-03-11T21:02:40.785Z,87.61
2023-03-11T21:05:08.726Z,88.14
2023-03-11T21:07:35.531Z,87.89
2023-03-11T21:10:04.182Z,87.99
2023-03-11T21:12:31.406Z,89.10
2023-03-11T21:15:00.624Z,88.35
2023-03-11T21:17:27.208Z,92.31
2023-03-11T21:19:53.824Z,91.01
2023-03-11T21:22:20.473Z,89.99
2023-03-11T21:24:53.710Z,89.50
2023-03-11T21:27:29.626Z,90.11
2023-03-11T21:29:56.995Z,92.59
2023-03-11T21:32:25.384Z,92.88
2023-03-11T21:34:57.159Z,92.83
2023-03-11T21:37:23.873Z,91.48
2023-03-11T21:39:50.552Z,91.29
2023-03-11T21:42:17.677Z,92.45
2023-03-11T21:44:44.489Z,91.57
2023-03-11T21:47:11.039Z,91.67
2023-03-11T21:49:38.732Z,91.70
2023-03-11T21:52:06.576Z,91.59
2023-03-11T21:54:33.086Z,92.16
2023-03-11T21:56:59.701Z,90.29
2023-03-11T21:59:26.422Z,89.50
2023-03-11T22:01:53.053Z,91.69
2023-03-11T22:04:19.895Z,89.34
2023-03-11T22:06:46.492Z,91.22
2023-03-11T22:09:13.086Z,91.85
2023-03-11T22:11:39.853Z,92.56
2023-03-11T22:14:06.530Z,91.01
2023-03-11T22:16:33.160Z,92.37
2023-03-11T22:18:59.872Z,90.85
2023-03-11T22:21:26.474Z,91.17
2023-03-11T22:23:52.948Z,91.56
2023-03-11T22:26:19.502Z,90.47
2023-03-11T22:28:46.056Z,91.28
2023-03-11T22:31:14.794Z,90.67
2023-03-11T22:33:41.371Z,89.45
2023-03-11T22:36:09.086Z,91.75
2023-03-11T22:38:36.817Z,89.40
2023-03-11T22:41:07.411Z,90.54
2023-03-11T22:43:35.419Z,89.95
2023-03-11T22:46:02.648Z,89.54
2023-03-11T22:48:29.202Z,90.97
2023-03-11T22:50:55.645Z,88.83
2023-03-11T22:53:23.216Z,91.02
2023-03-11T22:55:49.628Z,88.87
2023-03-11T22:58:16.066Z,86.96
2023-03-11T23:00:44.076Z,87.38
2023-03-11T23:03:11.929Z,86.52
2023-03-11T23:05:42.271Z,87.32
2023-03-11T23:08:15.482Z,86.70
2023-03-11T23:10:43.851Z,87.78
2023-03-11T23:13:10.551Z,87.63
2023-03-11T23:15:40.230Z,87.17
2023-03-11T23:18:06.924Z,87.79
2023-03-11T23:20:38.025Z,87.32
2023-03-11T23:23:05.036Z,87.62
2023-03-11T23:25:32.351Z,88.49
2023-03-11T23:28:00.898Z,88.61
2023-03-11T23:30:27.338Z,87.18
2023-03-11T23:32:54.013Z,86.15
2023-03-11T23:35:20.548Z,86.30
2023-03-11T23:37:50.865Z,86.04
2023-03-11T23:40:17.747Z,86.06
2023-03-11T23:42:44.250Z,85.68
2023-03-11T23:45:11.318Z,87.29
2023-03-11T23:47:37.793Z,86.26
2023-03-11T23:50:04.593Z,86.82
2023-03-11T23:52:31.338Z,85.29
2023-03-11T23:54:57.775Z,86.37
2023-03-11T23:57:24.283Z,85.86
2023-03-11T23:59:50.695Z,85.29
